Time;durP1;ratioP1;P1;durP2;ratioP2;P2;SDS_P1;SDS_P2;PMS_P1;PMS_P2;Temp;Humidity;BMP_temperature;BMP_pressure;BME280_temperature;BME280_humidity;BME280_pressure;Samples;Min_cycle;Max_cycle;Signal;HPM_P1;HPM_P2
2022/01/08 00:00:22;;;;;;;1999.90;999.90;;;;;;;-1.30;58.11;100503.38;4944798;28;97726;-72
2022/01/08 00:02:51;;;;;;;1999.90;999.90;;;;;;;-1.30;57.73;100519.03;4956443;22;99299;-68
2022/01/08 00:05:19;;;;;;;1999.90;999.90;;;;;;;-1.32;57.89;100515.47;4926571;28;98770;-69
2022/01/08 00:07:47;;;;;;;1999.90;999.90;;;;;;;-1.32;57.75;100513.72;4939078;28;96737;-67
2022/01/08 00:10:15;;;;;;;1999.90;999.90;;;;;;;-1.35;58.04;100516.16;4939145;28;97330;-68
2022/01/08 00:12:44;;;;;;;1999.90;999.90;;;;;;;-1.38;57.81;100522.88;4944329;28;98992;-68
2022/01/08 00:15:12;;;;;;;1999.90;999.90;;;;;;;-1.37;58.45;100524.69;4949618;28;97275;-68
2022/01/08 00:17:40;;;;;;;1999.90;999.90;;;;;;;-1.39;57.72;100524.59;4947166;28;98244;-68
2022/01/08 00:20:09;;;;;;;1999.90;999.90;;;;;;;-1.41;57.85;100520.97;4941028;28;97105;-68
2022/01/08 00:22:37;;;;;;;1999.90;999.90;;;;;;;-1.45;57.71;100518.09;4947818;28;100708;-68
2022/01/08 00:25:06;;;;;;;1999.90;999.90;;;;;;;-1.44;57.80;100519.88;4949576;28;97825;-68
2022/01/08 00:27:34;;;;;;;1999.90;999.90;;;;;;;-1.46;58.09;100521.47;4937369;28;96816;-68
2022/01/08 00:30:03;;;;;;;1999.90;999.90;;;;;;;-1.50;58.40;100515.16;4939936;28;97091;-68
2022/01/08 00:32:31;;;;;;;1999.90;999.90;;;;;;;-1.51;58.38;100507.25;4948382;28;100498;-68
2022/01/08 00:34:59;;;;;;;1999.90;999.90;;;;;;;-1.53;57.96;100514.97;4949852;28;97724;-68
2022/01/08 00:37:27;;;;;;;1999.90;999.90;;;;;;;-1.53;57.98;100524.50;4945271;28;97134;-68
2022/01/08 00:39:54;;;;;;;1999.90;999.90;;;;;;;-1.52;58.59;100515.88;4945379;28;98147;-68
2022/01/08 00:42:22;;;;;;;1999.90;999.90;;;;;;;-1.50;58.37;100516.84;4947439;28;98742;-69
2022/01/08 00:44:50;;;;;;;1999.90;999.90;;;;;;;-1.51;57.78;100521.19;4944377;28;97977;-69
2022/01/08 00:47:19;;;;;;;1999.90;999.90;;;;;;;-1.53;57.98;100521.88;4948127;28;97641;-69
2022/01/08 00:49:47;;;;;;;1999.90;999.90;;;;;;;-1.61;58.10;100524.00;4949721;28;98989;-68
2022/01/08 00:52:14;;;;;;;1999.90;999.90;;;;;;;-1.63;58.83;100522.13;4949606;28;97834;-69
2022/01/08 00:54:42;;;;;;;1999.90;999.90;;;;;;;-1.65;58.75;100527.22;4946432;28;99070;-68
2022/01/08 00:57:10;;;;;;;1999.90;999.90;;;;;;;-1.68;58.62;100523.50;4947159;28;97213;-68
2022/01/08 00:59:38;;;;;;;1999.90;999.90;;;;;;;-1.71;58.83;100528.53;4950015;28;96713;-68
2022/01/08 01:02:05;;;;;;;1999.90;999.90;;;;;;;-1.68;58.76;100523.50;4945986;28;100443;-68
2022/01/08 01:04:35;;;;;;;1999.90;999.90;;;;;;;-1.71;58.81;100524.22;4947418;28;98112;-68
2022/01/08 01:07:03;;;;;;;1999.90;999.90;;;;;;;-1.72;58.55;100529.34;4950233;28;96812;-68
2022/01/08 01:09:31;;;;;;;1999.90;999.90;;;;;;;-1.73;58.39;100525.81;4949179;28;96942;-67
2022/01/08 01:11:59;;;;;;;1999.90;999.90;;;;;;;-1.72;58.27;100522.41;4947952;28;98539;-69
2022/01/08 01:14:27;;;;;;;1999.90;999.90;;;;;;;-1.72;58.31;100529.34;4946131;28;96713;-68
2022/01/08 01:16:55;;;;;;;1999.90;999.90;;;;;;;-1.72;58.37;100521.50;4941843;28;96950;-68
2022/01/08 01:19:23;;;;;;;1999.90;999.90;;;;;;;-1.71;58.87;100523.31;4947452;28;97286;-68
2022/01/08 01:21:54;;;;;;;1999.90;999.90;;;;;;;-1.75;58.31;100523.91;4947667;28;99305;-68
2022/01/08 01:24:24;;;;;;;1999.90;999.90;;;;;;;-1.76;58.26;100520.38;4946521;28;97772;-68
2022/01/08 01:27:16;;;;;;;1999.90;999.90;;;;;;;-1.76;58.65;100523.00;4931009;28;96775;-69
2022/01/08 01:29:52;;;;;;;1999.90;999.90;;;;;;;-1.77;58.71;100523.81;4929378;28;97356;-68
2022/01/08 01:43:38;;;;;;;1999.90;999.90;;;;;;;-1.83;58.86;100512.09;4942791;28;99675;-70
2022/01/08 01:49:06;;;;;;;1999.90;999.90;;;;;;;-1.92;58.35;100500.22;4867629;28;96967;-68
2022/01/08 01:51:34;;;;;;;1999.90;999.90;;;;;;;-1.93;58.72;100501.06;4879362;28;97144;-69
2022/01/08 01:54:03;;;;;;;1999.90;999.90;;;;;;;-1.93;58.38;100506.25;4902666;28;97005;-69
2022/01/08 01:56:31;;;;;;;1999.90;999.90;;;;;;;-1.94;58.55;100504.44;4945108;28;100334;-68
2022/01/08 01:58:59;;;;;;;1999.90;999.90;;;;;;;-1.93;58.96;100502.75;4948663;28;96681;-69
2022/01/08 02:01:27;;;;;;;1999.90;999.90;;;;;;;-1.94;58.02;100504.44;4945133;28;99196;-68
2022/01/08 02:03:54;;;;;;;1999.90;999.90;;;;;;;-1.94;58.49;100504.44;4945380;28;98782;-69
2022/01/08 02:06:22;;;;;;;1999.90;999.90;;;;;;;-2.00;58.92;100501.41;4946770;28;98674;-68
2022/01/08 02:08:51;;;;;;;1999.90;999.90;;;;;;;-2.04;58.53;100494.22;4962602;28;97160;-69
2022/01/08 02:11:20;;;;;;;1999.90;999.90;;;;;;;-2.05;58.33;100497.63;4946805;28;97130;-69
2022/01/08 02:13:51;;;;;;;1999.90;999.90;;;;;;;-2.04;59.02;100496.84;4944749;28;100491;-68
2022/01/08 02:16:19;;;;;;;1999.90;999.90;;;;;;;-2.08;59.05;100494.81;4942086;28;97545;-68
2022/01/08 02:18:50;;;;;;;1999.90;999.90;;;;;;;-2.08;58.89;100492.22;4944446;28;97144;-68
2022/01/08 02:21:19;;;;;;;1999.90;999.90;;;;;;;-2.09;58.70;100498.19;4947128;28;98010;-68
2022/01/08 02:23:48;;;;;;;1999.90;999.90;;;;;;;-2.10;58.68;100493.81;4945857;28;98177;-68
2022/01/08 02:26:15;;;;;;;1999.90;999.90;;;;;;;-2.09;58.86;100493.00;4946879;28;97558;-69
2022/01/08 02:28:43;;;;;;;1999.90;999.90;;;;;;;-2.08;59.04;100488.69;4939168;28;96816;-68
2022/01/08 02:31:21;;;;;;;1999.90;999.90;;;;;;;-2.07;58.31;100486.19;4940419;28;96823;-69
2022/01/08 02:33:48;;;;;;;1999.90;999.90;;;;;;;-2.06;59.21;100500.13;4944603;28;101053;-67
2022/01/08 02:36:16;;;;;;;1999.90;999.90;;;;;;;-2.07;59.05;100486.19;4946986;28;98715;-68
2022/01/08 02:38:47;;;;;;;1999.90;999.90;;;;;;;-2.05;58.31;100489.78;4931506;28;97119;-67
2022/01/08 02:41:15;;;;;;;1999.90;999.90;;;;;;;-2.03;59.07;100495.09;4927422;28;96978;-67
2022/01/08 02:43:46;;;;;;;1999.90;999.90;;;;;;;-2.00;58.76;100496.22;4943492;28;97009;-68
2022/01/08 02:46:14;;;;;;;1999.90;999.90;;;;;;;-2.01;58.47;100491.81;4947447;28;98494;-68
2022/01/08 02:48:41;;;;;;;1999.90;999.90;;;;;;;-2.01;58.58;100491.81;4945535;28;96886;-68
2022/01/08 02:51:09;;;;;;;1999.90;999.90;;;;;;;-1.98;58.87;100499.81;4948647;28;97124;-68
2022/01/08 02:53:37;;;;;;;1999.90;999.90;;;;;;;-1.97;58.13;100496.44;4927702;28;99824;-68
2022/01/08 02:56:06;;;;;;;1999.90;999.90;;;;;;;-1.98;58.62;100489.41;4944364;28;97209;-68
2022/01/08 02:58:34;;;;;;;1999.90;999.90;;;;;;;-1.95;58.68;100499.13;4948340;28;96631;-68
2022/01/08 03:01:01;;;;;;;1999.90;999.90;;;;;;;-1.93;58.84;100505.34;4943102;28;97029;-67
2022/01/08 03:03:29;;;;;;;1999.90;999.90;;;;;;;-1.91;58.28;100504.63;4946165;28;100515;-68
2022/01/08 03:05:57;;;;;;;1999.90;999.90;;;;;;;-1.88;58.34;100501.34;4960528;28;97206;-68
2022/01/08 03:08:26;;;;;;;1999.90;999.90;;;;;;;-1.92;58.45;100504.53;4941497;28;98231;-67
2022/01/08 03:10:54;;;;;;;1999.90;999.90;;;;;;;-1.96;58.17;100506.03;4941939;28;96752;-68
2022/01/08 03:13:23;;;;;;;1999.90;999.90;;;;;;;-2.00;58.56;100506.63;4943668;28;98516;-68
2022/01/08 03:15:51;;;;;;;1999.90;999.90;;;;;;;-2.03;58.24;100502.94;4947097;28;97607;-67
2022/01/08 03:18:18;;;;;;;1999.90;999.90;;;;;;;-2.03;58.98;100500.31;4947577;28;96786;-67
2022/01/08 03:21:00;;;;;;;1999.90;999.90;;;;;;;-2.03;58.63;100500.31;4947536;28;97133;-67
2022/01/08 03:23:36;;;;;;;1999.90;999.90;;;;;;;-2.00;58.41;100503.16;4942935;28;100130;-68
2022/01/08 03:26:05;;;;;;;1999.90;999.90;;;;;;;-1.97;58.50;100505.94;4939911;28;99399;-68
2022/01/08 03:28:34;;;;;;;1999.90;999.90;;;;;;;-1.98;58.72;100502.44;4944074;28;97156;-68
2022/01/08 03:31:02;;;;;;;1999.90;999.90;;;;;;;-1.98;58.38;100497.22;4945838;28;98012;-67
2022/01/08 03:33:29;;;;;;;1999.90;999.90;;;;;;;-1.97;59.14;100503.34;4943555;28;99302;-68
2022/01/08 03:35:57;;;;;;;1999.90;999.90;;;;;;;-1.95;58.80;100500.03;4938739;28;97065;-68
2022/01/08 03:38:25;;;;;;;1999.90;999.90;;;;;;;-1.94;58.59;100503.53;4942679;28;97134;-68
2022/01/08 03:40:52;;;;;;;1999.90;999.90;;;;;;;-2.00;58.29;100504.03;4947365;28;98195;-69
2022/01/08 03:43:20;;;;;;;1999.90;999.90;;;;;;;-2.00;58.88;100504.03;4942190;28;99131;-69
2022/01/08 03:45:49;;;;;;;1999.90;999.90;;;;;;;-2.02;59.17;100505.66;4948328;28;97732;-68
2022/01/08 03:48:27;;;;;;;1999.90;999.90;;;;;;;-2.03;59.14;100505.53;4927723;28;97095;-68
2022/01/08 03:50:56;;;;;;;1999.90;999.90;;;;;;;-2.02;59.16;100496.94;4949396;28;96949;-69
2022/01/08 03:53:24;;;;;;;1999.90;999.90;;;;;;;-2.00;58.96;100504.03;4948305;28;98314;-68
2022/01/08 03:55:53;;;;;;;1999.90;999.90;;;;;;;-2.00;59.15;100501.41;4949790;28;100719;-68
2022/01/08 03:58:21;;;;;;;1999.90;999.90;;;;;;;-1.98;58.41;100505.03;4946930;28;97313;-68
2022/01/08 04:00:50;;;;;;;1999.90;999.90;;;;;;;-1.95;59.04;100505.25;4946447;28;96949;-69
2022/01/08 04:03:18;;;;;;;1999.90;999.90;;;;;;;-1.92;58.52;100505.44;4946330;28;96735;-68
2022/01/08 04:05:47;;;;;;;1999.90;999.90;;;;;;;-1.92;58.46;100502.84;4947263;28;98806;-68
2022/01/08 04:08:15;;;;;;;1999.90;999.90;;;;;;;-1.91;58.94;100504.63;4948608;28;96852;-68
2022/01/08 04:10:42;;;;;;;1999.90;999.90;;;;;;;-1.93;59.04;100503.66;4948763;28;97337;-68
2022/01/08 04:13:13;;;;;;;1999.90;999.90;;;;;;;-1.88;58.19;100496.13;4942934;28;97787;-68
2022/01/08 04:15:44;;;;;;;1999.90;999.90;;;;;;;-1.89;58.75;100507.38;4948415;28;99865;-68
2022/01/08 04:18:13;;;;;;;1999.90;999.90;;;;;;;-1.91;58.60;100504.63;4945910;28;96874;-69
2022/01/08 04:20:55;;;;;;;1999.90;999.90;;;;;;;-1.94;58.73;100511.34;4947668;28;97126;-68
2022/01/08 04:23:22;;;;;;;1999.90;999.90;;;;;;;-1.89;58.05;100508.25;4949673;28;100433;-68
2022/01/08 04:25:50;;;;;;;1999.90;999.90;;;;;;;-1.88;58.18;100510.06;4946475;28;98690;-68
2022/01/08 04:28:19;;;;;;;1999.90;999.90;;;;;;;-1.88;58.57;100503.94;4944722;28;96957;-68
2022/01/08 04:30:47;;;;;;;1999.90;999.90;;;;;;;-1.86;58.65;100508.47;4950089;28;97227;-68
2022/01/08 04:33:16;;;;;;;1999.90;999.90;;;;;;;-1.82;58.07;100506.06;4947035;28;98848;-68
2022/01/08 04:35:44;;;;;;;1999.90;999.90;;;;;;;-1.79;57.91;100508.84;4948071;28;98006;-68
2022/01/08 04:38:12;;;;;;;1999.90;999.90;;;;;;;-1.78;58.59;100506.38;4948420;28;97838;-68
2022/01/08 04:40:40;;;;;;;1999.90;999.90;;;;;;;-1.75;57.93;100495.22;4950164;28;97055;-68
2022/01/08 04:43:08;;;;;;;1999.90;999.90;;;;;;;-1.72;58.13;100500.66;4945422;28;96961;-68
2022/01/08 04:45:36;;;;;;;1999.90;999.90;;;;;;;-1.70;58.46;100504.22;4945749;28;98411;-68
2022/01/08 04:48:04;;;;;;;1999.90;999.90;;;;;;;-1.67;57.80;100501.84;4949732;28;96792;-68
2022/01/08 04:50:33;;;;;;;1999.90;999.90;;;;;;;-1.67;57.71;100501.84;4948340;28;96817;-68
2022/01/08 04:53:01;;;;;;;1999.90;999.90;;;;;;;-1.71;57.96;100492.91;4945735;28;96783;-68
2022/01/08 04:55:28;;;;;;;1999.90;999.90;;;;;;;-1.69;57.95;100498.22;4947588;28;97841;-68
2022/01/08 04:57:56;;;;;;;1999.90;999.90;;;;;;;-1.71;58.00;100495.53;4929677;28;98690;-68
2022/01/08 05:00:24;;;;;;;1999.90;999.90;;;;;;;-1.72;58.11;100491.09;4949287;28;96938;-68
2022/01/08 05:02:51;;;;;;;1999.90;999.90;;;;;;;-1.70;58.51;100504.22;4955387;28;98998;-69
2022/01/08 05:05:19;;;;;;;1999.90;999.90;;;;;;;-1.70;57.91;100504.22;4926935;28;99701;-67
2022/01/08 05:07:48;;;;;;;1999.90;999.90;;;;;;;-1.71;58.63;100500.75;4941081;28;96729;-67
2022/01/08 05:10:16;;;;;;;1999.90;999.90;;;;;;;-1.69;57.95;100504.34;4944734;28;97185;-69
2022/01/08 05:12:44;;;;;;;1999.90;999.90;;;;;;;-1.70;57.96;100493.81;4948936;28;97852;-67
2022/01/08 05:15:12;;;;;;;1999.90;999.90;;;;;;;-1.69;58.60;100500.84;4949972;28;97613;-67
2022/01/08 05:17:42;;;;;;;1999.90;999.90;;;;;;;-1.66;58.38;100496.72;4946242;28;97746;-67
2022/01/08 05:20:12;;;;;;;1999.90;999.90;;;;;;;-1.64;58.16;100494.22;4949969;28;97160;-67
2022/01/08 05:22:50;;;;;;;1999.90;999.90;;;;;;;-1.62;58.22;100495.22;4942818;28;97739;-67
2022/01/08 05:25:21;;;;;;;1999.90;999.90;;;;;;;-1.63;58.11;100485.59;4944973;28;97706;-67
2022/01/08 05:27:50;;;;;;;1999.90;999.90;;;;;;;-1.62;58.47;100490.00;4948307;28;97569;-67
2022/01/08 05:30:20;;;;;;;1999.90;999.90;;;;;;;-1.62;58.36;100488.28;4945822;28;96894;-67
2022/01/08 05:32:49;;;;;;;1999.90;999.90;;;;;;;-1.62;58.23;100483.09;4946756;28;98013;-67
2022/01/08 05:35:17;;;;;;;1999.90;999.90;;;;;;;-1.61;58.61;100492.69;4947556;28;97762;-67
2022/01/08 05:37:45;;;;;;;1999.90;999.90;;;;;;;-1.66;58.49;100496.72;4946190;28;98242;-67
2022/01/08 05:40:13;;;;;;;1999.90;999.90;;;;;;;-1.68;58.51;100494.81;4944597;28;97287;-68
2022/01/08 05:42:42;;;;;;;1999.90;999.90;;;;;;;-1.69;58.10;100493.00;4944862;28;99351;-67
2022/01/08 05:45:10;;;;;;;1999.90;999.90;;;;;;;-1.69;58.53;100490.41;4946396;28;97606;-68
2022/01/08 05:47:38;;;;;;;1999.90;999.90;;;;;;;-1.71;58.11;100495.53;4945776;28;97408;-66
2022/01/08 05:50:07;;;;;;;1999.90;999.90;;;;;;;-1.70;58.28;100499.03;4940590;28;96922;-66
2022/01/08 05:52:35;;;;;;;1999.90;999.90;;;;;;;-1.70;58.53;100499.03;4947419;28;98520;-66
2022/01/08 05:55:03;;;;;;;1999.90;999.90;;;;;;;-1.71;58.71;100490.31;4943392;28;97990;-66
2022/01/08 05:57:31;;;;;;;1999.90;999.90;;;;;;;-1.71;58.41;100502.44;4946748;28;100965;-67
2022/01/08 06:00:01;;;;;;;1999.90;999.90;;;;;;;-1.72;58.36;100508.47;4943597;28;97461;-66
2022/01/08 06:02:35;;;;;;;1999.90;999.90;;;;;;;-1.72;58.27;100511.09;4943784;28;98583;-66
2022/01/08 06:05:03;;;;;;;1999.90;999.90;;;;;;;-1.71;58.64;100512.88;4945841;28;99409;-65
2022/01/08 06:07:30;;;;;;;1999.90;999.90;;;;;;;-1.69;58.38;100509.56;4943965;28;99248;-66
2022/01/08 06:09:58;;;;;;;1999.90;999.90;;;;;;;-1.69;58.73;100517.41;4942480;28;97265;-66
2022/01/08 06:12:26;;;;;;;1999.90;999.90;;;;;;;-1.68;58.37;100520.88;4945312;28;99770;-68
2022/01/08 06:14:53;;;;;;;1999.90;999.90;;;;;;;-1.68;58.25;100520.88;4942367;28;97280;-67
2022/01/08 06:17:23;;;;;;;1999.90;999.90;;;;;;;-1.69;58.75;100522.63;4943919;28;96923;-67
2022/01/08 06:19:50;;;;;;;1999.90;999.90;;;;;;;-1.71;58.69;100519.00;4945803;28;98342;-67
2022/01/08 06:22:18;;;;;;;1999.90;999.90;;;;;;;-1.69;58.26;100526.91;4944720;28;98008;-66
2022/01/08 06:24:46;;;;;;;1999.90;999.90;;;;;;;-1.69;58.01;100532.13;4947887;28;98533;-67
2022/01/08 06:27:14;;;;;;;1999.90;999.90;;;;;;;-1.68;58.03;100524.41;4947996;28;96755;-67
2022/01/08 06:29:41;;;;;;;1999.90;999.90;;;;;;;-1.67;58.36;100531.44;4945405;28;97530;-68
2022/01/08 06:32:09;;;;;;;1999.90;999.90;;;;;;;-1.67;58.51;100533.16;4929474;28;99312;-67
2022/01/08 06:34:38;;;;;;;1999.90;999.90;;;;;;;-1.70;58.48;100539.06;4948139;28;98994;-67
2022/01/08 06:37:06;;;;;;;1999.90;999.90;;;;;;;-1.72;58.01;100538.03;4947547;28;97562;-67
2022/01/08 06:39:34;;;;;;;1999.90;999.90;;;;;;;-1.73;58.10;100541.47;4947404;28;97626;-69
2022/01/08 06:42:02;;;;;;;1999.90;999.90;;;;;;;-1.72;58.09;100537.16;4927080;28;97661;-67
2022/01/08 06:44:29;;;;;;;1999.90;999.90;;;;;;;-1.75;58.21;100552.59;4946512;28;97612;-67
2022/01/08 06:46:57;;;;;;;1999.90;999.90;;;;;;;-1.75;58.39;100542.16;4944807;28;96860;-67
2022/01/08 06:49:25;;;;;;;1999.90;999.90;;;;;;;-1.78;58.50;100550.69;4945570;28;97287;-67
2022/01/08 06:51:54;;;;;;;1999.90;999.90;;;;;;;-1.82;58.71;100550.38;4944649;28;99616;-68
2022/01/08 06:54:21;;;;;;;1999.90;999.90;;;;;;;-1.82;58.91;100560.81;4948326;28;99669;-67
2022/01/08 06:56:49;;;;;;;1999.90;999.90;;;;;;;-1.79;58.23;100561.00;4946061;28;99127;-67
2022/01/08 06:59:17;;;;;;;1999.90;999.90;;;;;;;-1.80;58.06;100569.66;4944473;28;97431;-67
2022/01/08 07:01:44;;;;;;;1999.90;999.90;;;;;;;-1.79;57.92;100571.44;4947307;28;96940;-67
2022/01/08 07:04:12;;;;;;;1999.90;999.90;;;;;;;-1.78;58.80;100578.47;4948570;28;97465;-67
2022/01/08 07:06:40;;;;;;;1999.90;999.90;;;;;;;-1.79;58.74;100580.16;4948856;28;99117;-67
2022/01/08 07:09:09;;;;;;;1999.90;999.90;;;;;;;-1.78;57.87;100574.19;4945347;28;96889;-68
2022/01/08 07:11:37;;;;;;;1999.90;999.90;;;;;;;-1.77;58.57;100570.75;4946816;28;97585;-69
2022/01/08 07:14:04;;;;;;;1999.90;999.90;;;;;;;-1.76;58.38;100579.47;4944364;28;98665;-67
2022/01/08 07:16:32;;;;;;;1999.90;999.90;;;;;;;-1.79;58.02;100582.78;4946357;28;96911;-68
2022/01/08 07:19:00;;;;;;;1999.90;999.90;;;;;;;-1.80;58.79;100587.91;4946668;28;97139;-67
2022/01/08 07:21:27;;;;;;;1999.90;999.90;;;;;;;-1.83;58.39;100583.38;4959518;28;97793;-67
2022/01/08 07:23:56;;;;;;;1999.90;999.90;;;;;;;-1.83;58.07;100585.97;4942247;28;98740;-67
2022/01/08 07:26:25;;;;;;;1999.90;999.90;;;;;;;-1.84;58.70;100592.00;4947878;28;96896;-68
2022/01/08 07:28:52;;;;;;;1999.90;999.90;;;;;;;-1.85;58.07;100593.69;4947329;28;96883;-67
2022/01/08 07:31:22;;;;;;;1999.90;999.90;;;;;;;-1.84;58.49;100594.63;4946502;28;100742;-67
2022/01/08 07:33:50;;;;;;;1999.90;999.90;;;;;;;-1.85;58.09;100598.91;4944011;28;98703;-67
2022/01/08 07:36:18;;;;;;;1999.90;999.90;;;;;;;-1.82;58.61;100592.09;4931347;28;97135;-67
2022/01/08 07:38:46;;;;;;;1999.90;999.90;;;;;;;-1.79;57.86;100600.13;4943065;28;96745;-67
2022/01/08 07:41:14;;;;;;;1999.90;999.90;;;;;;;-1.78;58.51;100596.72;4942569;28;97698;-66
2022/01/08 07:43:43;;;;;;;1999.90;999.90;;;;;;;-1.75;58.38;100600.44;4935340;28;99028;-67
2022/01/08 07:46:11;;;;;;;1999.90;999.90;;;;;;;-1.74;58.43;100601.34;4945228;28;98601;-67
2022/01/08 07:48:40;;;;;;;1999.90;999.90;;;;;;;-1.72;58.11;100607.59;4944774;28;96741;-67
2022/01/08 07:51:08;;;;;;;1999.90;999.90;;;;;;;-1.71;57.70;100606.75;4945055;28;100282;-67
2022/01/08 07:53:36;;;;;;;1999.90;999.90;;;;;;;-1.67;58.04;100598.34;4931106;28;98152;-67
2022/01/08 07:56:03;;;;;;;1999.90;999.90;;;;;;;-1.66;57.99;100601.06;4943707;28;96865;-67
2022/01/08 07:58:31;;;;;;;1999.90;999.90;;;;;;;-1.66;57.83;100595.84;4935571;28;96891;-67
2022/01/08 08:01:00;;;;;;;1999.90;999.90;;;;;;;-1.63;58.05;100606.47;4939567;28;98877;-67
2022/01/08 08:03:28;;;;;;;1999.90;999.90;;;;;;;-1.61;57.54;100606.56;4944906;28;98835;-66
2022/01/08 08:05:56;;;;;;;1999.90;999.90;;;;;;;-1.60;58.02;100608.38;4936543;28;99418;-68
2022/01/08 08:08:24;;;;;;;1999.90;999.90;;;;;;;-1.61;57.73;100610.09;4944149;28;98494;-67
2022/01/08 08:10:51;;;;;;;1999.90;999.90;;;;;;;-1.60;58.28;100611.00;4945708;28;98801;-69
2022/01/08 08:13:20;;;;;;;1999.90;999.90;;;;;;;-1.61;58.15;100607.47;4946299;28;99847;-66
2022/01/08 08:15:48;;;;;;;1999.90;999.90;;;;;;;-1.62;57.56;100599.56;4944275;28;97148;-66
2022/01/08 08:18:17;;;;;;;1999.90;999.90;;;;;;;-1.64;57.47;100604.66;4943061;28;96746;-66
2022/01/08 08:20:45;;;;;;;1999.90;999.90;;;;;;;-1.63;57.58;100608.19;4944247;28;97848;-66
2022/01/08 08:23:12;;;;;;;1999.90;999.90;;;;;;;-1.66;57.88;100603.66;4944120;28;98723;-66
2022/01/08 08:25:40;;;;;;;1999.90;999.90;;;;;;;-1.66;57.92;100602.75;4947587;28;98015;-66
2022/01/08 08:28:08;;;;;;;1999.90;999.90;;;;;;;-1.66;57.88;100600.13;4946927;28;96912;-66
2022/01/08 08:30:36;;;;;;;1999.90;999.90;;;;;;;-1.69;57.31;100599.94;4940804;28;98710;-66
2022/01/08 08:33:04;;;;;;;1999.90;999.90;;;;;;;-1.74;57.87;100599.63;4941106;28;97592;-68
2022/01/08 08:35:34;;;;;;;1999.90;999.90;;;;;;;-1.73;58.14;100598.84;4952004;28;96838;-65
2022/01/08 08:38:02;;;;;;;1999.90;999.90;;;;;;;-1.72;57.86;100610.19;4948836;28;96943;-65
2022/01/08 08:40:29;;;;;;;1999.90;999.90;;;;;;;-1.71;57.58;100604.16;4946266;28;99809;-66
2022/01/08 08:42:57;;;;;;;1999.90;999.90;;;;;;;-1.73;57.75;100604.06;4941608;28;100970;-65
2022/01/08 08:45:25;;;;;;;1999.90;999.90;;;;;;;-1.73;57.76;100603.16;4965294;28;99552;-66
2022/01/08 08:47:55;;;;;;;1999.90;999.90;;;;;;;-1.71;57.95;100599.84;4946966;28;96966;-67
2022/01/08 08:50:24;;;;;;;1999.90;999.90;;;;;;;-1.69;57.63;100598.25;4946817;28;99787;-66
2022/01/08 08:52:54;;;;;;;1999.90;999.90;;;;;;;-1.71;57.73;100599.84;4947809;28;97633;-66
2022/01/08 08:55:22;;;;;;;1999.90;999.90;;;;;;;-1.73;58.23;100595.31;4949147;28;97210;-66
2022/01/08 08:57:50;;;;;;;1999.90;999.90;;;;;;;-1.75;57.99;100599.53;4945032;28;96912;-66
2022/01/08 09:00:19;;;;;;;1999.90;999.90;;;;;;;-1.77;58.38;100602.03;4945125;28;98801;-66
2022/01/08 09:02:46;;;;;;;1999.90;999.90;;;;;;;-1.76;57.96;100598.63;4947934;28;97706;-66
2022/01/08 09:05:14;;;;;;;1999.90;999.90;;;;;;;-1.74;58.22;100603.97;4941366;28;97025;-66
2022/01/08 09:07:42;;;;;;;1999.90;999.90;;;;;;;-1.73;57.81;100600.53;4945001;28;97889;-66
2022/01/08 09:10:12;;;;;;;1999.90;999.90;;;;;;;-1.69;58.24;100592.13;4947963;28;97995;-66
2022/01/08 09:12:41;;;;;;;1999.90;999.90;;;;;;;-1.68;57.90;100592.22;4943095;28;99982;-66
2022/01/08 09:15:10;;;;;;;1999.90;999.90;;;;;;;-1.65;57.79;100587.19;4947228;28;97097;-66
2022/01/08 09:17:39;;;;;;;1999.90;999.90;;;;;;;-1.63;58.31;100590.81;4945576;28;96884;-66
2022/01/08 09:20:09;;;;;;;1999.90;999.90;;;;;;;-1.62;57.48;100594.34;4948501;28;97661;-67
2022/01/08 09:22:37;;;;;;;1999.90;999.90;;;;;;;-1.63;57.80;100589.94;4943922;28;99578;-66
2022/01/08 09:25:05;;;;;;;1999.90;999.90;;;;;;;-1.62;57.62;100592.63;4941736;28;97168;-66
2022/01/08 09:27:34;;;;;;;1999.90;999.90;;;;;;;-1.60;58.06;100595.34;4943501;28;97108;-66
2022/01/08 09:30:03;;;;;;;1999.90;999.90;;;;;;;-1.59;57.52;100602.34;4923303;28;98461;-66
2022/01/08 09:32:31;;;;;;;1999.90;999.90;;;;;;;-1.57;57.52;100595.53;4941148;28;99065;-66
2022/01/08 09:34:59;;;;;;;1999.90;999.90;;;;;;;-1.58;58.08;100586.84;4946035;28;97562;-66
2022/01/08 09:37:27;;;;;;;1999.90;999.90;;;;;;;-1.58;58.01;100586.84;4948468;28;99269;-66
2022/01/08 09:39:54;;;;;;;1999.90;999.90;;;;;;;-1.56;57.49;100589.53;4942245;28;97172;-67
2022/01/08 09:42:22;;;;;;;1999.90;999.90;;;;;;;-1.53;58.19;100574.06;4947909;28;97679;-67
2022/01/08 09:44:51;;;;;;;1999.90;999.90;;;;;;;-1.52;57.88;100570.69;4947094;28;97440;-66
2022/01/08 09:47:19;;;;;;;1999.90;999.90;;;;;;;-1.50;57.58;100571.66;4942749;28;97422;-69
2022/01/08 09:49:48;;;;;;;1999.90;999.90;;;;;;;-1.50;58.08;100582.09;4943300;28;99562;-68
2022/01/08 09:52:16;;;;;;;1999.90;999.90;;;;;;;-1.48;57.45;100581.41;4944154;28;97573;-69
2022/01/08 09:54:44;;;;;;;1999.90;999.90;;;;;;;-1.48;57.84;100590.91;4944285;28;97190;-68
2022/01/08 09:57:11;;;;;;;1999.90;999.90;;;;;;;-1.51;57.91;100585.50;4945649;28;97583;-68
2022/01/08 09:59:39;;;;;;;1999.90;999.90;;;;;;;-1.51;57.93;100582.91;4940120;28;97643;-68
2022/01/08 10:02:09;;;;;;;1999.90;999.90;;;;;;;-1.55;57.65;100573.97;4940549;28;97947;-71
2022/01/08 10:04:38;;;;;;;1999.90;999.90;;;;;;;-1.54;57.22;100570.53;4941093;28;97487;-70
2022/01/08 10:07:59;;;;;;;1999.90;999.90;;;;;;;-1.56;57.42;100576.50;4943758;28;96930;-70
2022/01/08 10:10:27;;;;;;;1999.90;999.90;;;;;;;-1.59;57.48;100577.19;4943683;28;97694;-67
2022/01/08 10:12:59;;;;;;;1999.90;999.90;;;;;;;-1.61;57.60;100570.03;4942276;28;99195;-67
2022/01/08 10:18:23;;;;;;;1999.90;999.90;;;;;;;-1.64;57.94;100575.97;4944281;28;96665;-67
2022/01/08 10:20:52;;;;;;;1999.90;999.90;;;;;;;-1.64;58.06;100570.75;4943753;28;97811;-68
2022/01/08 10:23:20;;;;;;;1999.90;999.90;;;;;;;-1.66;57.45;100561.00;4944953;28;96853;-68
2022/01/08 10:25:57;;;;;;;1999.90;999.90;;;;;;;-1.64;57.94;100569.84;4941681;28;97028;-67
2022/01/08 10:28:36;;;;;;;1999.90;999.90;;;;;;;-1.60;57.88;100564.03;4947401;28;96963;-67
2022/01/08 10:31:12;;;;;;;1999.90;999.90;;;;;;;-1.59;57.64;100563.22;4947064;28;98901;-67
2022/01/08 10:33:43;;;;;;;1999.90;999.90;;;;;;;-1.58;57.19;100575.47;4944044;28;98711;-68
2022/01/08 10:36:11;;;;;;;1999.90;999.90;;;;;;;-1.57;57.62;100574.66;4938670;28;97128;-68
2022/01/08 10:38:39;;;;;;;1999.90;999.90;;;;;;;-1.60;57.44;100564.03;4933705;28;96907;-67
2022/01/08 10:41:13;;;;;;;1999.90;999.90;;;;;;;-1.59;57.16;100571.97;4938173;28;98940;-68
2022/01/08 10:43:41;;;;;;;1999.90;999.90;;;;;;;-1.60;57.51;100579.69;4933689;28;97027;-68
2022/01/08 10:46:13;;;;;;;1999.90;999.90;;;;;;;-1.60;57.14;100569.25;4944079;28;98320;-67
2022/01/08 10:48:45;;;;;;;1999.90;999.90;;;;;;;-1.59;57.02;100566.75;4936643;28;98094;-68
2022/01/08 10:51:20;;;;;;;1999.90;999.90;;;;;;;-1.60;57.11;100559.72;4942911;28;97837;-68
2022/01/08 10:54:03;;;;;;;1999.90;999.90;;;;;;;-1.61;57.53;100565.75;4941440;28;98841;-67
2022/01/08 10:56:32;;;;;;;1999.90;999.90;;;;;;;-1.63;57.80;100559.50;4942410;28;96820;-67
2022/01/08 10:59:03;;;;;;;1999.90;999.90;;;;;;;-1.59;57.01;100573.66;4943921;28;97301;-67
2022/01/08 11:01:48;;;;;;;1999.90;999.90;;;;;;;-1.55;57.39;100560.94;4944673;28;97648;-66
2022/01/08 11:04:19;;;;;;;1999.90;999.90;;;;;;;-1.51;56.80;100567.25;4946521;28;98986;-68
2022/01/08 11:06:52;;;;;;;1999.90;999.90;;;;;;;-1.51;57.02;100564.63;4946293;28;97160;-68
2022/01/08 11:09:20;;;;;;;1999.90;999.90;;;;;;;-1.50;56.83;100561.22;4946211;28;97141;-68
2022/01/08 11:11:51;;;;;;;1999.90;999.90;;;;;;;-1.48;56.78;100554.41;4945787;28;97720;-68